sensor_id;sensor_type;location;lat;lon;timestamp;pressure;altitude;pressure_sealevel;temperature;humidity
49825;BME280;35714;55.708;37.478;2023-07-13T00:01:19;98498.91;;;13.34;67.00
49825;BME280;35714;55.708;37.478;2023-07-13T00:03:45;98497.53;;;13.37;66.79
49825;BME280;35714;55.708;37.478;2023-07-13T00:06:11;98504.06;;;13.41;66.24
49825;BME280;35714;55.708;37.478;2023-07-13T00:08:36;98495.34;;;13.39;66.33
49825;BME280;35714;55.708;37.478;2023-07-13T00:11:03;98507.31;;;13.38;66.73
49825;BME280;35714;55.708;37.478;2023-07-13T00:13:29;98503.81;;;13.37;66.52
49825;BME280;35714;55.708;37.478;2023-07-13T00:15:58;98506.78;;;13.35;66.36
49825;BME280;35714;55.708;37.478;2023-07-13T00:18:24;98507.31;;;13.32;66.45
49825;BME280;35714;55.708;37.478;2023-07-13T00:20:49;98507.31;;;13.32;66.44
49825;BME280;35714;55.708;37.478;2023-07-13T00:23:15;98502.44;;;13.34;66.20
49825;BME280;35714;55.708;37.478;2023-07-13T00:25:42;98501.88;;;13.32;66.19
49825;BME280;35714;55.708;37.478;2023-07-13T00:28:08;98499.69;;;13.29;66.54
49825;BME280;35714;55.708;37.478;2023-07-13T00:30:34;98502.72;;;13.33;66.35
49825;BME280;35714;55.708;37.478;2023-07-13T00:32:59;98504.06;;;13.30;66.34
49825;BME280;35714;55.708;37.478;2023-07-13T00:35:27;98500.81;;;13.28;66.32
49825;BME280;35714;55.708;37.478;2023-07-13T00:37:55;98501.34;;;13.30;66.28
49825;BME280;35714;55.708;37.478;2023-07-13T00:40:24;98498.91;;;13.34;66.40
49825;BME280;35714;55.708;37.478;2023-07-13T00:42:52;98495.63;;;13.32;66.41
49825;BME280;35714;55.708;37.478;2023-07-13T00:47:43;98487.22;;;13.33;66.35
49825;BME280;35714;55.708;37.478;2023-07-13T00:50:12;98497.81;;;13.35;66.55
49825;BME280;35714;55.708;37.478;2023-07-13T00:52:48;98501.88;;;13.38;66.34
49825;BME280;35714;55.708;37.478;2023-07-13T00:55:15;98499.72;;;13.34;66.39
49825;BME280;35714;55.708;37.478;2023-07-13T00:57:42;98505.16;;;13.34;66.51
49825;BME280;35714;55.708;37.478;2023-07-13T01:00:09;98485.03;;;13.25;66.37
49825;BME280;35714;55.708;37.478;2023-07-13T01:02:40;98508.44;;;13.37;66.42
49825;BME280;35714;55.708;37.478;2023-07-13T01:05:17;98504.06;;;13.41;66.39
49825;BME280;35714;55.708;37.478;2023-07-13T01:07:44;98492.66;;;13.33;66.30
49825;BME280;35714;55.708;37.478;2023-07-13T01:10:11;98505.97;;;13.40;66.48
49825;BME280;35714;55.708;37.478;2023-07-13T01:12:37;98509.25;;;13.37;66.45
49825;BME280;35714;55.708;37.478;2023-07-13T01:15:04;98493.19;;;13.35;66.64
49825;BME280;35714;55.708;37.478;2023-07-13T01:17:33;98494.25;;;13.34;66.74
49825;BME280;35714;55.708;37.478;2023-07-13T01:20:00;98497.81;;;13.35;66.85
49825;BME280;35714;55.708;37.478;2023-07-13T01:22:26;98495.91;;;13.35;67.11
49825;BME280;35714;55.708;37.478;2023-07-13T01:24:54;98485.53;;;13.32;67.07
49825;BME280;35714;55.708;37.478;2023-07-13T01:27:22;98493.97;;;13.31;67.13
49825;BME280;35714;55.708;37.478;2023-07-13T01:29:51;98488.81;;;13.34;67.22
49825;BME280;35714;55.708;37.478;2023-07-13T01:32:20;98488.25;;;13.32;67.21
49825;BME280;35714;55.708;37.478;2023-07-13T01:34:51;98482.84;;;13.27;67.30
49825;BME280;35714;55.708;37.478;2023-07-13T01:37:20;98481.47;;;13.30;67.42
49825;BME280;35714;55.708;37.478;2023-07-13T01:39:47;98477.13;;;13.34;67.40
49825;BME280;35714;55.708;37.478;2023-07-13T01:42:13;98482.81;;;13.38;67.44
49825;BME280;35714;55.708;37.478;2023-07-13T01:44:40;98471.94;;;13.38;67.30
49825;BME280;35714;55.708;37.478;2023-07-13T01:47:07;98475.75;;;13.42;67.18
49825;BME280;35714;55.708;37.478;2023-07-13T01:49:33;98468.13;;;13.39;67.28
49825;BME280;35714;55.708;37.478;2023-07-13T01:51:58;98466.47;;;13.38;67.27
49825;BME280;35714;55.708;37.478;2023-07-13T01:54:24;98470.28;;;13.42;66.98
49825;BME280;35714;55.708;37.478;2023-07-13T01:56:50;98473.56;;;13.39;67.22
49825;BME280;35714;55.708;37.478;2023-07-13T01:59:16;98468.13;;;13.39;67.57
49825;BME280;35714;55.708;37.478;2023-07-13T02:01:41;98457.78;;;13.35;67.16
49825;BME280;35714;55.708;37.478;2023-07-13T02:04:07;98462.16;;;13.37;67.29
49825;BME280;35714;55.708;37.478;2023-07-13T02:06:33;98453.97;;;13.37;67.28
49825;BME280;35714;55.708;37.478;2023-07-13T02:08:59;98456.69;;;13.42;67.12
49825;BME280;35714;55.708;37.478;2023-07-13T02:11:25;98456.13;;;13.45;67.07
49825;BME280;35714;55.708;37.478;2023-07-13T02:14:02;98463.22;;;13.46;66.93
49825;BME280;35714;55.708;37.478;2023-07-13T02:16:30;98461.03;;;13.43;67.04
49825;BME280;35714;55.708;37.478;2023-07-13T02:18:57;98462.09;;;13.47;67.11
49825;BME280;35714;55.708;37.478;2023-07-13T02:21:23;98458.81;;;13.50;66.99
49825;BME280;35714;55.708;37.478;2023-07-13T02:23:51;98467.56;;;13.52;67.08
49825;BME280;35714;55.708;37.478;2023-07-13T02:26:19;98466.16;;;13.54;66.75
49825;BME280;35714;55.708;37.478;2023-07-13T02:28:44;98467.00;;;13.55;66.73
49825;BME280;35714;55.708;37.478;2023-07-13T02:31:14;98472.69;;;13.59;66.62
49825;BME280;35714;55.708;37.478;2023-07-13T02:33:40;98468.06;;;13.59;66.38
49825;BME280;35714;55.708;37.478;2023-07-13T02:36:07;98460.97;;;13.63;66.72
49825;BME280;35714;55.708;37.478;2023-07-13T02:38:33;98448.97;;;13.64;66.80
49825;BME280;35714;55.708;37.478;2023-07-13T02:41:06;98446.78;;;13.66;66.91
49825;BME280;35714;55.708;37.478;2023-07-13T02:43:33;98442.66;;;13.69;66.89
49825;BME280;35714;55.708;37.478;2023-07-13T02:46:00;98460.38;;;13.71;67.05
49825;BME280;35714;55.708;37.478;2023-07-13T02:48:33;98441.03;;;13.73;66.84
49825;BME280;35714;55.708;37.478;2023-07-13T02:50:59;98435.03;;;13.76;67.11
49825;BME280;35714;55.708;37.478;2023-07-13T02:53:25;98440.72;;;13.80;66.80
49825;BME280;35714;55.708;37.478;2023-07-13T02:55:51;98446.72;;;13.82;66.58
49825;BME280;35714;55.708;37.478;2023-07-13T02:58:16;98447.81;;;13.81;66.47
49825;BME280;35714;55.708;37.478;2023-07-13T03:00:46;98459.25;;;13.78;66.58
49825;BME280;35714;55.708;37.478;2023-07-13T03:03:14;98444.00;;;13.77;66.55
49825;BME280;35714;55.708;37.478;2023-07-13T03:05:42;98446.72;;;13.77;66.66
49825;BME280;35714;55.708;37.478;2023-07-13T03:08:11;98442.91;;;13.78;66.66
49825;BME280;35714;55.708;37.478;2023-07-13T03:10:38;98437.47;;;13.78;66.80
49825;BME280;35714;55.708;37.478;2023-07-13T03:13:07;98421.91;;;13.83;66.76
49825;BME280;35714;55.708;37.478;2023-07-13T03:15:33;98434.66;;;13.93;66.51
49825;BME280;35714;55.708;37.478;2023-07-13T03:17:59;98439.00;;;13.99;66.13
49825;BME280;35714;55.708;37.478;2023-07-13T03:20:25;98444.97;;;14.01;66.14
49825;BME280;35714;55.708;37.478;2023-07-13T03:22:50;98444.13;;;14.06;66.02
49825;BME280;35714;55.708;37.478;2023-07-13T03:25:17;98442.22;;;14.06;65.96
49825;BME280;35714;55.708;37.478;2023-07-13T03:27:45;98445.19;;;14.10;65.82
49825;BME280;35714;55.708;37.478;2023-07-13T03:30:11;98434.53;;;14.14;65.64
49825;BME280;35714;55.708;37.478;2023-07-13T03:32:37;98444.03;;;14.16;65.48
49825;BME280;35714;55.708;37.478;2023-07-13T03:35:04;98450.56;;;14.20;65.32
49825;BME280;35714;55.708;37.478;2023-07-13T03:37:39;98449.78;;;14.20;65.57
49825;BME280;35714;55.708;37.478;2023-07-13T03:40:10;98454.94;;;14.21;65.42
49825;BME280;35714;55.708;37.478;2023-07-13T03:42:36;98453.03;;;14.22;65.69
49825;BME280;35714;55.708;37.478;2023-07-13T03:45:02;98457.09;;;14.24;65.39
49825;BME280;35714;55.708;37.478;2023-07-13T03:47:30;98456.22;;;14.34;65.22
49825;BME280;35714;55.708;37.478;2023-07-13T03:49:56;98451.00;;;14.38;64.95
49825;BME280;35714;55.708;37.478;2023-07-13T03:52:22;98458.84;;;14.44;64.81
49825;BME280;35714;55.708;37.478;2023-07-13T03:54:48;98452.81;;;14.53;64.51
49825;BME280;35714;55.708;37.478;2023-07-13T03:57:15;98454.69;;;14.57;64.35
49825;BME280;35714;55.708;37.478;2023-07-13T03:59:40;98458.19;;;14.63;64.25
49825;BME280;35714;55.708;37.478;2023-07-13T04:02:07;98453.25;;;14.70;63.74
49825;BME280;35714;55.708;37.478;2023-07-13T04:04:33;98455.44;;;14.68;64.03
49825;BME280;35714;55.708;37.478;2023-07-13T04:06:59;98458.69;;;14.70;63.78
49825;BME280;35714;55.708;37.478;2023-07-13T04:09:25;98451.25;;;14.76;63.67
49825;BME280;35714;55.708;37.478;2023-07-13T04:11:51;98458.66;;;14.75;63.67
49825;BME280;35714;55.708;37.478;2023-07-13T04:14:17;98451.03;;;14.72;63.77
49825;BME280;35714;55.708;37.478;2023-07-13T04:16:43;98462.44;;;14.79;63.78
49825;BME280;35714;55.708;37.478;2023-07-13T04:19:09;98466.75;;;14.86;63.61
49825;BME280;35714;55.708;37.478;2023-07-13T04:21:36;98449.81;;;14.84;63.55
49825;BME280;35714;55.708;37.478;2023-07-13T04:24:02;98460.16;;;14.92;63.26
49825;BME280;35714;55.708;37.478;2023-07-13T04:26:29;98460.38;;;14.95;63.04
49825;BME280;35714;55.708;37.478;2023-07-13T04:28:55;98458.75;;;14.94;63.39
49825;BME280;35714;55.708;37.478;2023-07-13T04:31:21;98449.19;;;14.97;63.12
49825;BME280;35714;55.708;37.478;2023-07-13T04:33:48;98448.88;;;14.98;62.88
49825;BME280;35714;55.708;37.478;2023-07-13T04:36:15;98442.03;;;15.01;62.85
49825;BME280;35714;55.708;37.478;2023-07-13T04:38:40;98434.38;;;15.03;62.87
49825;BME280;35714;55.708;37.478;2023-07-13T04:41:07;98441.13;;;15.11;62.72
49825;BME280;35714;55.708;37.478;2023-07-13T04:43:34;98448.69;;;15.19;62.61
49825;BME280;35714;55.708;37.478;2023-07-13T04:46:18;98452.84;;;15.36;62.04
49825;BME280;35714;55.708;37.478;2023-07-13T04:48:44;98452.00;;;15.40;61.80
49825;BME280;35714;55.708;37.478;2023-07-13T04:51:10;98445.31;;;15.51;61.59
49825;BME280;35714;55.708;37.478;2023-07-13T04:53:36;98438.84;;;15.66;61.01
49825;BME280;35714;55.708;37.478;2023-07-13T04:56:03;98456.47;;;15.79;60.79
49825;BME280;35714;55.708;37.478;2023-07-13T04:58:29;98447.84;;;15.91;60.33
49825;BME280;35714;55.708;37.478;2023-07-13T05:01:05;98451.19;;;16.07;59.51
49825;BME280;35714;55.708;37.478;2023-07-13T05:03:32;98447.88;;;16.10;59.32
49825;BME280;35714;55.708;37.478;2023-07-13T05:06:00;98455.69;;;16.17;59.13
49825;BME280;35714;55.708;37.478;2023-07-13T05:08:26;98464.06;;;16.26;59.63
49825;BME280;35714;55.708;37.478;2023-07-13T05:10:52;98455.59;;;16.41;58.60
49825;BME280;35714;55.708;37.478;2023-07-13T05:13:18;98460.91;;;16.51;58.58
49825;BME280;35714;55.708;37.478;2023-07-13T05:15:45;98464.16;;;16.53;58.41
49825;BME280;35714;55.708;37.478;2023-07-13T05:18:11;98459.72;;;16.57;58.47
49825;BME280;35714;55.708;37.478;2023-07-13T05:20:36;98470.13;;;16.74;58.11
49825;BME280;35714;55.708;37.478;2023-07-13T05:23:02;98458.19;;;16.84;57.26
49825;BME280;35714;55.708;37.478;2023-07-13T05:25:28;98459.47;;;16.73;57.63
49825;BME280;35714;55.708;37.478;2023-07-13T05:27:54;98458.16;;;16.70;57.62
49825;BME280;35714;55.708;37.478;2023-07-13T05:30:19;98462.22;;;16.73;57.62
49825;BME280;35714;55.708;37.478;2023-07-13T05:32:45;98457.34;;;16.70;57.77
49825;BME280;35714;55.708;37.478;2023-07-13T05:35:11;98459.19;;;16.74;57.88
49825;BME280;35714;55.708;37.478;2023-07-13T05:37:37;98449.13;;;16.89;57.50
49825;BME280;35714;55.708;37.478;2023-07-13T05:40:03;98465.38;;;17.13;56.63
49825;BME280;35714;55.708;37.478;2023-07-13T05:42:30;98459.50;;;17.34;56.09
49825;BME280;35714;55.708;37.478;2023-07-13T05:44:56;98454.66;;;17.58;55.82
49825;BME280;35714;55.708;37.478;2023-07-13T05:47:22;98448.63;;;17.84;55.22
49825;BME280;35714;55.708;37.478;2023-07-13T05:49:48;98435.94;;;18.02;53.13
49825;BME280;35714;55.708;37.478;2023-07-13T05:52:14;98438.56;;;18.07;52.60
49825;BME280;35714;55.708;37.478;2023-07-13T05:54:39;98446.50;;;18.09;52.76
49825;BME280;35714;55.708;37.478;2023-07-13T05:57:05;98451.53;;;18.15;51.34
49825;BME280;35714;55.708;37.478;2023-07-13T05:59:31;98447.06;;;18.19;50.37
49825;BME280;35714;55.708;37.478;2023-07-13T06:01:56;98446.94;;;18.25;50.96
49825;BME280;35714;55.708;37.478;2023-07-13T06:04:22;98451.91;;;18.36;51.19
49825;BME280;35714;55.708;37.478;2023-07-13T06:06:48;98450.94;;;18.55;49.64
49825;BME280;35714;55.708;37.478;2023-07-13T06:09:13;98441.69;;;18.51;49.10
49825;BME280;35714;55.708;37.478;2023-07-13T06:11:39;98446.53;;;18.54;49.40
49825;BME280;35714;55.708;37.478;2023-07-13T06:14:05;98438.44;;;18.71;49.31
49825;BME280;35714;55.708;37.478;2023-07-13T06:16:30;98432.94;;;18.94;49.20
49825;BME280;35714;55.708;37.478;2023-07-13T06:18:56;98437.13;;;19.23;47.48
49825;BME280;35714;55.708;37.478;2023-07-13T06:21:22;98430.22;;;19.34;46.61
49825;BME280;35714;55.708;37.478;2023-07-13T06:23:50;98425.84;;;19.33;46.53
49825;BME280;35714;55.708;37.478;2023-07-13T06:26:19;98423.56;;;19.26;45.99
49825;BME280;35714;55.708;37.478;2023-07-13T06:28:45;98420.75;;;19.18;46.51
49825;BME280;35714;55.708;37.478;2023-07-13T06:31:13;98417.78;;;19.37;47.66
49825;BME280;35714;55.708;37.478;2023-07-13T06:33:39;98421.31;;;19.77;44.73
49825;BME280;35714;55.708;37.478;2023-07-13T06:36:06;98427.50;;;19.92;43.88
49825;BME280;35714;55.708;37.478;2023-07-13T06:38:33;98428.78;;;19.86;43.78
49825;BME280;35714;55.708;37.478;2023-07-13T06:40:59;98421.59;;;19.76;44.06
49825;BME280;35714;55.708;37.478;2023-07-13T06:43:24;98421.31;;;19.77;43.72
49825;BME280;35714;55.708;37.478;2023-07-13T06:45:51;98420.44;;;19.68;44.09
49825;BME280;35714;55.708;37.478;2023-07-13T06:48:18;98422.50;;;19.54;44.40
49825;BME280;35714;55.708;37.478;2023-07-13T06:50:45;98423.63;;;19.44;44.51
49825;BME280;35714;55.708;37.478;2023-07-13T06:53:12;98429.84;;;19.27;44.95
49825;BME280;35714;55.708;37.478;2023-07-13T06:55:39;98430.00;;;19.22;45.42
49825;BME280;35714;55.708;37.478;2023-07-13T06:58:04;98419.34;;;19.20;45.31
49825;BME280;35714;55.708;37.478;2023-07-13T07:00:30;98429.94;;;19.13;45.40
49825;BME280;35714;55.708;37.478;2023-07-13T07:02:56;98431.25;;;19.07;45.85
49825;BME280;35714;55.708;37.478;2023-07-13T07:05:22;98427.56;;;19.11;46.21
49825;BME280;35714;55.708;37.478;2023-07-13T07:07:50;98424.28;;;19.09;45.92
49825;BME280;35714;55.708;37.478;2023-07-13T07:10:16;98429.16;;;19.13;45.60
49825;BME280;35714;55.708;37.478;2023-07-13T07:12:42;98422.63;;;19.00;45.10
49825;BME280;35714;55.708;37.478;2023-07-13T07:15:08;98423.56;;;18.95;45.77
49825;BME280;35714;55.708;37.478;2023-07-13T07:17:34;98426.00;;;18.97;46.00
49825;BME280;35714;55.708;37.478;2023-07-13T07:20:00;98418.72;;;18.92;46.05
49825;BME280;35714;55.708;37.478;2023-07-13T07:22:25;98424.03;;;18.88;45.60
49825;BME280;35714;55.708;37.478;2023-07-13T07:24:53;98429.31;;;18.85;45.36
49825;BME280;35714;55.708;37.478;2023-07-13T07:27:20;98436.44;;;18.86;45.76
49825;BME280;35714;55.708;37.478;2023-07-13T07:29:46;98432.44;;;18.69;46.69
49825;BME280;35714;55.708;37.478;2023-07-13T07:32:11;98427.59;;;18.66;46.67
49825;BME280;35714;55.708;37.478;2023-07-13T07:34:37;98437.81;;;18.74;46.86
49825;BME280;35714;55.708;37.478;2023-07-13T07:37:03;98423.69;;;18.67;47.15
49825;BME280;35714;55.708;37.478;2023-07-13T07:39:29;98440.78;;;18.64;47.47
49825;BME280;35714;55.708;37.478;2023-07-13T07:41:55;98442.81;;;18.72;47.33
49825;BME280;35714;55.708;37.478;2023-07-13T07:44:21;98440.41;;;18.80;47.11
49825;BME280;35714;55.708;37.478;2023-07-13T07:46:47;98447.47;;;18.72;47.41
49825;BME280;35714;55.708;37.478;2023-07-13T07:49:13;98441.34;;;18.75;47.18
49825;BME280;35714;55.708;37.478;2023-07-13T07:51:38;98453.41;;;18.65;47.47
49825;BME280;35714;55.708;37.478;2023-07-13T07:54:04;98446.09;;;18.61;47.88
49825;BME280;35714;55.708;37.478;2023-07-13T07:56:30;98451.84;;;18.50;48.23
49825;BME280;35714;55.708;37.478;2023-07-13T07:58:56;98455.41;;;18.51;48.10
49825;BME280;35714;55.708;37.478;2023-07-13T08:01:22;98445.66;;;18.45;48.44
49825;BME280;35714;55.708;37.478;2023-07-13T08:03:48;98449.44;;;18.49;47.86
49825;BME280;35714;55.708;37.478;2023-07-13T08:06:13;98452.66;;;18.51;47.96
49825;BME280;35714;55.708;37.478;2023-07-13T08:08:39;98441.06;;;18.54;47.10
49825;BME280;35714;55.708;37.478;2023-07-13T08:11:06;98448.91;;;18.47;47.89
49825;BME280;35714;55.708;37.478;2023-07-13T08:13:33;98451.53;;;18.52;47.43
49825;BME280;35714;55.708;37.478;2023-07-13T08:15:59;98452.03;;;18.54;47.77
49825;BME280;35714;55.708;37.478;2023-07-13T08:18:25;98447.31;;;18.46;47.81
49825;BME280;35714;55.708;37.478;2023-07-13T08:20:51;98439.69;;;18.43;48.02
49825;BME280;35714;55.708;37.478;2023-07-13T08:23:17;98446.22;;;18.33;47.28
49825;BME280;35714;55.708;37.478;2023-07-13T08:25:50;98452.38;;;18.16;47.90
49825;BME280;35714;55.708;37.478;2023-07-13T08:28:16;98461.97;;;17.91;48.96
49825;BME280;35714;55.708;37.478;2023-07-13T08:30:42;98455.56;;;17.67;49.97
49825;BME280;35714;55.708;37.478;2023-07-13T08:33:07;98458.31;;;17.54;50.33
49825;BME280;35714;55.708;37.478;2023-07-13T08:35:33;98462.56;;;17.46;51.58
49825;BME280;35714;55.708;37.478;2023-07-13T08:37:59;98459.72;;;17.23;52.86
49825;BME280;35714;55.708;37.478;2023-07-13T08:40:27;98459.91;;;17.13;54.45
49825;BME280;35714;55.708;37.478;2023-07-13T08:42:55;98455.72;;;17.02;55.23
49825;BME280;35714;55.708;37.478;2023-07-13T08:45:27;98466.78;;;16.97;56.10
49825;BME280;35714;55.708;37.478;2023-07-13T08:54:05;98469.56;;;16.39;59.58
49825;BME280;35714;55.708;37.478;2023-07-13T08:56:34;98477.47;;;16.41;59.92
49825;BME280;35714;55.708;37.478;2023-07-13T08:59:14;98475.97;;;16.35;60.71
49825;BME280;35714;55.708;37.478;2023-07-13T09:04:35;98467.44;;;16.17;61.95
49825;BME280;35714;55.708;37.478;2023-07-13T09:07:11;98474.06;;;16.11;61.47
49825;BME280;35714;55.708;37.478;2023-07-13T09:15:31;98487.09;;;16.00;63.64
49825;BME280;35714;55.708;37.478;2023-07-13T09:18:14;98482.44;;;16.01;63.18
49825;BME280;35714;55.708;37.478;2023-07-13T09:20:49;98478.66;;;15.97;63.82
49825;BME280;35714;55.708;37.478;2023-07-13T09:23:19;98492.41;;;15.92;65.01
49825;BME280;35714;55.708;37.478;2023-07-13T09:25:53;98493.44;;;15.96;64.64
49825;BME280;35714;55.708;37.478;2023-07-13T09:28:25;98498.91;;;15.96;65.03
49825;BME280;35714;55.708;37.478;2023-07-13T09:30:56;98490.75;;;15.91;65.33
49825;BME280;35714;55.708;37.478;2023-07-13T09:33:24;98492.50;;;15.81;66.10
49825;BME280;35714;55.708;37.478;2023-07-13T09:35:50;98497.28;;;15.70;66.53
49825;BME280;35714;55.708;37.478;2023-07-13T09:38:22;98497.88;;;15.67;66.83
49825;BME280;35714;55.708;37.478;2023-07-13T09:46:26;98490.41;;;15.49;68.05
49825;BME280;35714;55.708;37.478;2023-07-13T09:48:52;98488.78;;;15.48;68.43
49825;BME280;35714;55.708;37.478;2023-07-13T09:51:18;98493.50;;;15.42;69.39
49825;BME280;35714;55.708;37.478;2023-07-13T09:53:44;98497.38;;;15.36;68.83
49825;BME280;35714;55.708;37.478;2023-07-13T09:56:26;98496.34;;;15.32;69.74
49825;BME280;35714;55.708;37.478;2023-07-13T09:58:52;98505.16;;;15.24;69.68
49825;BME280;35714;55.708;37.478;2023-07-13T10:01:38;98498.63;;;15.20;70.22
49825;BME280;35714;55.708;37.478;2023-07-13T10:04:11;98497.53;;;15.21;69.70
49825;BME280;35714;55.708;37.478;2023-07-13T10:06:39;98499.31;;;15.06;69.73
49825;BME280;35714;55.708;37.478;2023-07-13T10:21:46;98498.50;;;15.06;70.04
49825;BME280;35714;55.708;37.478;2023-07-13T10:24:18;98488.47;;;14.96;70.35
49825;BME280;35714;55.708;37.478;2023-07-13T10:26:54;98501.09;;;14.92;70.91
49825;BME280;35714;55.708;37.478;2023-07-13T10:29:23;98493.22;;;14.85;70.87
49825;BME280;35714;55.708;37.478;2023-07-13T10:31:51;98500.66;;;14.79;70.96
49825;BME280;35714;55.708;37.478;2023-07-13T10:34:17;98497.13;;;14.74;71.65
49825;BME280;35714;55.708;37.478;2023-07-13T10:36:45;98498.56;;;14.66;71.53
49825;BME280;35714;55.708;37.478;2023-07-13T10:39:18;98508.94;;;14.64;71.98
49825;BME280;35714;55.708;37.478;2023-07-13T10:41:48;98511.69;;;14.59;72.83
49825;BME280;35714;55.708;37.478;2023-07-13T10:44:34;98511.69;;;14.59;72.79
49825;BME280;35714;55.708;37.478;2023-07-13T10:47:14;98507.88;;;14.55;73.34
49825;BME280;35714;55.708;37.478;2023-07-13T10:49:41;98529.19;;;14.53;73.58
49825;BME280;35714;55.708;37.478;2023-07-13T10:52:41;98521.00;;;14.53;73.88
49825;BME280;35714;55.708;37.478;2023-07-13T10:58:23;98529.22;;;14.42;74.11
49825;BME280;35714;55.708;37.478;2023-07-13T11:01:03;98526.03;;;14.35;74.68
49825;BME280;35714;55.708;37.478;2023-07-13T11:03:32;98522.78;;;14.28;75.03
49825;BME280;35714;55.708;37.478;2023-07-13T11:06:08;98508.59;;;14.31;75.32
49825;BME280;35714;55.708;37.478;2023-07-13T11:08:52;98510.78;;;14.29;74.11
49825;BME280;35714;55.708;37.478;2023-07-13T11:11:38;98510.22;;;14.27;74.55
49825;BME280;35714;55.708;37.478;2023-07-13T11:14:29;98507.53;;;14.22;75.17
49825;BME280;35714;55.708;37.478;2023-07-13T11:16:52;98498.84;;;14.20;75.19
49825;BME280;35714;55.708;37.478;2023-07-13T11:22:11;98503.72;;;14.23;74.88
49825;BME280;35714;55.708;37.478;2023-07-13T11:24:57;98511.63;;;14.24;74.73
49825;BME280;35714;55.708;37.478;2023-07-13T11:35:52;98496.63;;;14.22;74.35
49825;BME280;35714;55.708;37.478;2023-07-13T11:38:45;98494.44;;;14.24;74.32
49825;BME280;35714;55.708;37.478;2023-07-13T11:43:41;98486.22;;;14.34;76.31
49825;BME280;35714;55.708;37.478;2023-07-13T11:46:36;98489.41;;;14.47;76.68
49825;BME280;35714;55.708;37.478;2023-07-13T11:49:05;98480.09;;;14.48;76.77
49825;BME280;35714;55.708;37.478;2023-07-13T11:51:33;98487.41;;;14.57;77.04
49825;BME280;35714;55.708;37.478;2023-07-13T11:54:13;98487.13;;;14.64;76.54
49825;BME280;35714;55.708;37.478;2023-07-13T11:56:42;98492.56;;;14.64;76.67
49825;BME280;35714;55.708;37.478;2023-07-13T11:59:11;98504.56;;;14.68;76.15
49825;BME280;35714;55.708;37.478;2023-07-13T12:01:44;98492.56;;;14.64;75.53
49825;BME280;35714;55.708;37.478;2023-07-13T12:06:54;98509.50;;;14.61;75.85
49825;BME280;35714;55.708;37.478;2023-07-13T12:09:20;98502.44;;;14.55;75.08
49825;BME280;35714;55.708;37.478;2023-07-13T12:11:51;98504.38;;;14.49;75.67
49825;BME280;35714;55.708;37.478;2023-07-13T12:14:18;98493.16;;;14.51;75.53
49825;BME280;35714;55.708;37.478;2023-07-13T12:16:45;98501.91;;;14.48;75.53
49825;BME280;35714;55.708;37.478;2023-07-13T12:19:23;98498.16;;;14.43;75.93
49825;BME280;35714;55.708;37.478;2023-07-13T12:21:50;98514.56;;;14.38;76.17
49825;BME280;35714;55.708;37.478;2023-07-13T12:24:19;98497.34;;;14.38;76.24
49825;BME280;35714;55.708;37.478;2023-07-13T12:27:03;98494.38;;;14.34;76.32
49825;BME280;35714;55.708;37.478;2023-07-13T12:29:32;98499.59;;;14.31;76.52
49825;BME280;35714;55.708;37.478;2023-07-13T12:31:58;98496.59;;;14.32;76.82
49825;BME280;35714;55.708;37.478;2023-07-13T12:34:26;98493.31;;;14.30;76.45
49825;BME280;35714;55.708;37.478;2023-07-13T12:36:54;98483.53;;;14.24;76.36
49825;BME280;35714;55.708;37.478;2023-07-13T12:39:25;98478.06;;;14.24;76.52
49825;BME280;35714;55.708;37.478;2023-07-13T12:41:53;98470.75;;;14.19;76.27
49825;BME280;35714;55.708;37.478;2023-07-13T12:44:40;98487.66;;;14.21;76.02
49825;BME280;35714;55.708;37.478;2023-07-13T12:47:12;98480.31;;;14.17;76.24
49825;BME280;35714;55.708;37.478;2023-07-13T12:49:59;98483.03;;;14.17;76.18
49825;BME280;35714;55.708;37.478;2023-07-13T12:52:31;98486.84;;;14.16;76.45
49825;BME280;35714;55.708;37.478;2023-07-13T12:55:12;98490.66;;;14.15;76.54
49825;BME280;35714;55.708;37.478;2023-07-13T12:57:42;98484.13;;;14.16;76.30
49825;BME280;35714;55.708;37.478;2023-07-13T13:00:47;98487.38;;;14.18;76.27
49825;BME280;35714;55.708;37.478;2023-07-13T13:05:46;98484.69;;;14.13;76.34
49825;BME280;35714;55.708;37.478;2023-07-13T13:08:15;98488.53;;;14.12;75.89
49825;BME280;35714;55.708;37.478;2023-07-13T13:10:41;98486.38;;;14.08;75.91
49825;BME280;35714;55.708;37.478;2023-07-13T13:13:06;98480.09;;;14.08;76.36
49825;BME280;35714;55.708;37.478;2023-07-13T13:15:34;98484.72;;;14.07;77.08
49825;BME280;35714;55.708;37.478;2023-07-13T13:18:01;98477.03;;;14.15;76.63
49825;BME280;35714;55.708;37.478;2023-07-13T13:20:27;98491.22;;;14.17;77.04
49825;BME280;35714;55.708;37.478;2023-07-13T13:22:52;98492.56;;;14.19;77.62
49825;BME280;35714;55.708;37.478;2023-07-13T13:25:19;98487.94;;;14.20;77.87
49825;BME280;35714;55.708;37.478;2023-07-13T13:27:45;98478.63;;;14.21;77.95
49825;BME280;35714;55.708;37.478;2023-07-13T13:30:12;98479.47;;;14.21;76.78
49825;BME280;35714;55.708;37.478;2023-07-13T13:32:45;98462.84;;;14.18;76.63
49825;BME280;35714;55.708;37.478;2023-07-13T13:35:14;98479.78;;;14.15;77.55
49825;BME280;35714;55.708;37.478;2023-07-13T13:37:40;98470.78;;;14.14;77.06
49825;BME280;35714;55.708;37.478;2023-07-13T13:40:21;98478.16;;;14.14;77.71
49825;BME280;35714;55.708;37.478;2023-07-13T13:42:48;98469.47;;;14.12;78.06
49825;BME280;35714;55.708;37.478;2023-07-13T13:45:14;98463.44;;;14.10;77.93
49825;BME280;35714;55.708;37.478;2023-07-13T13:47:44;98467.81;;;14.11;78.38
49825;BME280;35714;55.708;37.478;2023-07-13T13:50:15;98476.50;;;14.13;78.58
49825;BME280;35714;55.708;37.478;2023-07-13T13:52:43;98464.56;;;14.08;78.52
49825;BME280;35714;55.708;37.478;2023-07-13T13:55:19;98469.19;;;14.08;78.81